createdAt,value
2018-08-13T00:02:25.265Z,41.52
2018-08-13T00:04:53.569Z,42.44
2018-08-13T00:07:29.206Z,41.48
2018-08-13T00:09:58.923Z,42.55
2018-08-13T00:12:27.192Z,42.30
2018-08-13T00:14:55.489Z,42.07
2018-08-13T00:17:23.708Z,42.92
2018-08-13T00:19:51.964Z,43.27
2018-08-13T00:22:20.180Z,42.62
2018-08-13T00:24:48.396Z,42.27
2018-08-13T00:27:16.636Z,42.32
2018-08-13T00:29:44.850Z,43.14
2018-08-13T00:32:13.100Z,43.14
2018-08-13T00:34:41.329Z,42.50
2018-08-13T00:37:09.612Z,43.00
2018-08-13T00:39:37.813Z,43.18
2018-08-13T00:42:06.048Z,44.00
2018-08-13T00:44:34.322Z,43.99
2018-08-13T00:47:02.673Z,44.29
2018-08-13T00:49:30.921Z,43.33
2018-08-13T00:51:59.194Z,44.16
2018-08-13T00:54:27.470Z,43.24
2018-08-13T00:56:55.721Z,42.78
2018-08-13T00:59:23.960Z,42.93
2018-08-13T01:01:52.301Z,42.88
2018-08-13T01:04:20.548Z,43.68
2018-08-13T01:06:48.765Z,43.57
2018-08-13T01:09:16.976Z,43.28
2018-08-13T01:11:45.204Z,43.09
2018-08-13T01:14:13.432Z,43.98
2018-08-13T01:16:41.665Z,43.34
2018-08-13T01:19:09.972Z,43.67
2018-08-13T01:21:38.209Z,44.15
2018-08-13T01:24:06.464Z,43.74
2018-08-13T01:26:34.728Z,43.50
2018-08-13T01:29:03.173Z,43.26
2018-08-13T01:31:31.452Z,44.47
2018-08-13T01:33:59.708Z,43.63
2018-08-13T01:36:27.960Z,43.95
2018-08-13T01:38:56.296Z,44.00
2018-08-13T01:41:24.560Z,44.96
2018-08-13T01:43:52.783Z,44.14
2018-08-13T01:46:21.059Z,44.24
2018-08-13T01:48:49.346Z,44.69
2018-08-13T01:51:17.576Z,45.24
2018-08-13T01:53:45.853Z,43.88
2018-08-13T01:56:14.065Z,45.50
2018-08-13T01:58:42.316Z,45.25
2018-08-13T02:01:10.669Z,44.97
2018-08-13T02:03:38.900Z,44.56
2018-08-13T02:06:07.184Z,44.48
2018-08-13T02:08:35.456Z,45.23
2018-08-13T02:11:03.717Z,44.99
2018-08-13T02:13:31.968Z,43.90
2018-08-13T02:16:00.200Z,43.97
2018-08-13T02:18:28.432Z,44.25
2018-08-13T02:20:56.684Z,44.33
2018-08-13T02:23:24.884Z,45.18
2018-08-13T02:25:53.168Z,45.06
2018-08-13T02:28:21.380Z,44.79
2018-08-13T02:30:49.616Z,45.47
2018-08-13T02:33:17.836Z,45.07
2018-08-13T02:35:46.052Z,45.06
2018-08-13T02:38:14.485Z,45.24
2018-08-13T02:40:42.745Z,45.94
2018-08-13T02:43:11.036Z,46.65
2018-08-13T02:45:39.356Z,45.39
2018-08-13T02:48:07.641Z,45.96
2018-08-13T02:50:35.931Z,45.75
2018-08-13T02:53:04.196Z,45.58
2018-08-13T02:55:32.431Z,46.66
2018-08-13T02:58:00.738Z,45.72
2018-08-13T03:00:28.904Z,45.81
2018-08-13T03:02:57.124Z,46.52
2018-08-13T03:05:25.381Z,46.78
2018-08-13T03:07:53.602Z,46.92
2018-08-13T03:10:21.863Z,46.90
2018-08-13T03:12:50.089Z,46.42
2018-08-13T03:15:18.319Z,46.26
2018-08-13T03:17:46.533Z,47.12
2018-08-13T03:20:14.739Z,46.45
2018-08-13T03:22:43.149Z,45.96
2018-08-13T03:25:11.444Z,46.58
2018-08-13T03:27:39.708Z,46.75
2018-08-13T03:30:10.804Z,47.10
2018-08-13T03:32:39.410Z,46.96
2018-08-13T03:35:07.722Z,46.15
2018-08-13T03:37:35.984Z,46.32
2018-08-13T03:40:06.188Z,47.09
2018-08-13T03:42:34.397Z,47.00
2018-08-13T03:45:02.653Z,45.68
2018-08-13T03:47:30.928Z,46.10
2018-08-13T03:49:59.149Z,45.25
2018-08-13T03:52:27.380Z,45.68
2018-08-13T03:54:55.632Z,45.01
2018-08-13T03:57:23.866Z,45.69
2018-08-13T03:59:52.208Z,45.87
2018-08-13T04:02:20.444Z,45.65
2018-08-13T04:04:48.696Z,48.53
2018-08-13T04:07:16.956Z,53.20
2018-08-13T04:09:45.578Z,52.50
2018-08-13T04:12:14.699Z,53.73
2018-08-13T04:14:42.926Z,56.91
2018-08-13T04:17:11.205Z,58.00
2018-08-13T04:19:39.440Z,60.00
2018-08-13T04:22:07.672Z,60.92
2018-08-13T04:24:35.896Z,62.91
2018-08-13T04:27:04.264Z,62.61
2018-08-13T04:29:32.488Z,63.70
2018-08-13T04:32:00.709Z,64.84
2018-08-13T04:34:28.945Z,65.87
2018-08-13T04:36:57.157Z,66.64
2018-08-13T04:39:25.444Z,67.33
2018-08-13T04:41:53.664Z,67.44
2018-08-13T04:44:21.872Z,67.42
2018-08-13T04:46:50.081Z,68.49
2018-08-13T04:49:18.404Z,67.46
2018-08-13T04:51:46.624Z,68.63
2018-08-13T04:54:14.928Z,69.15
2018-08-13T04:56:43.180Z,69.41
2018-08-13T04:59:11.436Z,68.76
2018-08-13T05:01:40.721Z,69.52
2018-08-13T05:04:09.041Z,69.95
2018-08-13T05:06:37.424Z,70.11
2018-08-13T05:09:07.868Z,70.16
2018-08-13T05:11:36.433Z,70.49
2018-08-13T05:14:04.744Z,70.38
2018-08-13T05:16:32.980Z,70.58
2018-08-13T05:19:01.258Z,69.68
2018-08-13T05:21:29.882Z,69.40
2018-08-13T05:23:58.440Z,70.62
2018-08-13T05:26:26.721Z,70.64
2018-08-13T05:28:55.028Z,69.80
2018-08-13T05:31:23.300Z,70.37
2018-08-13T05:33:51.585Z,69.52
2018-08-13T05:36:19.836Z,69.38
2018-08-13T05:38:48.043Z,69.47
2018-08-13T05:41:16.318Z,70.55
2018-08-13T05:43:44.556Z,69.11
2018-08-13T05:46:12.946Z,70.60
2018-08-13T05:48:41.183Z,72.16
2018-08-13T05:51:09.408Z,71.45
2018-08-13T05:53:37.651Z,72.25
2018-08-13T05:56:05.867Z,73.00
2018-08-13T05:58:34.082Z,72.17
2018-08-13T06:01:02.312Z,73.00
2018-08-13T06:03:30.572Z,73.10
2018-08-13T06:05:58.892Z,71.11
2018-08-13T06:08:27.140Z,72.03
2018-08-13T06:10:55.344Z,72.47
2018-08-13T06:13:23.637Z,72.62
2018-08-13T06:15:51.836Z,71.41
2018-08-13T06:18:20.163Z,72.79
2018-08-13T06:20:48.409Z,71.96
2018-08-13T06:23:16.684Z,72.44
2018-08-13T06:25:44.901Z,73.09
2018-08-13T06:28:13.147Z,73.37
2018-08-13T06:30:41.381Z,73.42
2018-08-13T06:33:09.604Z,73.38
2018-08-13T06:35:37.844Z,73.02
2018-08-13T06:38:06.176Z,73.46
2018-08-13T06:40:34.437Z,72.62
2018-08-13T06:43:02.669Z,73.07
2018-08-13T06:45:30.897Z,72.19
2018-08-13T06:47:59.133Z,72.22
2018-08-13T06:50:27.353Z,73.62
2018-08-13T06:52:55.568Z,73.62
2018-08-13T06:55:23.777Z,72.85
2018-08-13T06:57:52.016Z,72.76
2018-08-13T07:00:20.249Z,73.41
2018-08-13T07:02:48.505Z,73.79
2018-08-13T07:05:16.741Z,73.76
2018-08-13T07:07:44.967Z,73.04
2018-08-13T07:10:16.085Z,73.92
2018-08-13T07:12:45.924Z,74.19
2018-08-13T07:15:15.021Z,73.75
2018-08-13T07:17:43.269Z,73.57
2018-08-13T07:20:14.476Z,72.92
2018-08-13T07:22:43.062Z,73.48
2018-08-13T07:25:11.320Z,72.57
2018-08-13T07:27:40.513Z,72.15
2018-08-13T07:30:10.864Z,72.39
2018-08-13T07:32:39.092Z,72.64
2018-08-13T07:35:07.885Z,74.17
2018-08-13T07:37:36.117Z,74.11
2018-08-13T07:40:05.805Z,73.11
2018-08-13T07:42:34.108Z,73.56
2018-08-13T07:45:02.338Z,73.79
2018-08-13T07:47:30.640Z,74.33
2018-08-13T07:49:59.089Z,73.83
2018-08-13T07:52:27.497Z,73.32
2018-08-13T07:54:55.729Z,73.96
2018-08-13T07:57:23.945Z,73.81
2018-08-13T07:59:52.212Z,74.92
2018-08-13T08:02:20.388Z,72.84
2018-08-13T08:04:48.624Z,72.91
2018-08-13T08:07:16.873Z,73.82
2018-08-13T08:09:45.094Z,74.13
2018-08-13T08:12:13.332Z,74.93
2018-08-13T08:14:41.639Z,74.90
2018-08-13T08:17:09.804Z,72.99
2018-08-13T08:19:38.037Z,73.87
2018-08-13T08:22:06.292Z,73.53
2018-08-13T08:24:34.518Z,74.23
2018-08-13T08:27:02.820Z,73.74
2018-08-13T08:29:31.045Z,73.70
2018-08-13T08:31:59.301Z,73.92
2018-08-13T08:34:27.525Z,74.86
2018-08-13T08:36:55.736Z,73.83
2018-08-13T08:39:23.976Z,72.94
2018-08-13T08:41:52.353Z,73.76
2018-08-13T08:44:20.612Z,72.88
2018-08-13T08:46:48.852Z,73.39
2018-08-13T08:49:17.113Z,73.36
2018-08-13T08:51:45.352Z,73.07
2018-08-13T08:54:13.562Z,72.67
2018-08-13T08:56:41.780Z,72.14
2018-08-13T08:59:10.818Z,71.86
2018-08-13T09:01:39.308Z,71.80
2018-08-13T09:04:08.528Z,72.23
2018-08-13T09:06:37.024Z,72.67
2018-08-13T09:09:08.782Z,71.12
2018-08-13T09:11:37.028Z,71.35
2018-08-13T09:14:05.736Z,72.17
2018-08-13T09:16:33.969Z,72.08
2018-08-13T09:19:13.469Z,71.97
2018-08-13T09:21:41.620Z,71.98
2018-08-13T09:24:21.128Z,72.12
2018-08-13T09:27:00.581Z,71.92
2018-08-13T09:29:40.067Z,72.66
2018-08-13T09:32:35.908Z,72.47
2018-08-13T09:35:11.660Z,72.16
2018-08-13T09:37:39.897Z,72.20
2018-08-13T09:40:08.924Z,72.50
2018-08-13T09:42:37.169Z,72.05
2018-08-13T09:45:07.064Z,72.26
2018-08-13T09:47:35.455Z,72.34
2018-08-13T09:50:03.737Z,72.56
2018-08-13T09:52:31.939Z,73.19
2018-08-13T09:55:00.176Z,74.04
2018-08-13T09:57:28.416Z,73.70
2018-08-13T09:59:56.664Z,72.59
2018-08-13T10:02:24.918Z,71.93
2018-08-13T10:04:53.150Z,72.95
2018-08-13T10:07:21.415Z,71.21
2018-08-13T10:09:49.661Z,72.44
2018-08-13T10:12:17.876Z,70.81
2018-08-13T10:14:46.097Z,71.28
2018-08-13T10:17:14.805Z,71.32
2018-08-13T10:19:43.117Z,71.95
2018-08-13T10:22:11.392Z,71.94
2018-08-13T10:24:39.686Z,72.91
2018-08-13T10:27:07.962Z,71.10
2018-08-13T10:29:36.233Z,71.02
2018-08-13T10:32:04.608Z,71.62
2018-08-13T10:34:32.901Z,72.07
2018-08-13T10:37:01.121Z,72.83
2018-08-13T10:39:29.385Z,72.44
2018-08-13T10:41:57.620Z,72.35
2018-08-13T10:44:25.896Z,72.37
2018-08-13T10:46:54.188Z,71.72
2018-08-13T10:49:23.466Z,72.33
2018-08-13T10:51:51.764Z,72.78
2018-08-13T10:54:20.046Z,73.04
2018-08-13T10:56:48.320Z,72.37
2018-08-13T10:59:16.628Z,68.32
2018-08-13T11:01:44.916Z,68.94
2018-08-13T11:04:13.153Z,70.14
2018-08-13T11:06:41.624Z,69.84
2018-08-13T11:09:11.124Z,69.32
2018-08-13T11:11:39.651Z,66.52
2018-08-13T11:14:07.925Z,64.48
2018-08-13T11:16:36.188Z,64.70
2018-08-13T11:19:04.504Z,64.29
2018-08-13T11:21:33.016Z,66.06
2018-08-13T11:24:01.189Z,64.88
2018-08-13T11:26:29.486Z,63.90
2018-08-13T11:28:57.728Z,64.95
2018-08-13T11:31:28.590Z,64.03
2018-08-13T11:33:56.828Z,65.53
2018-08-13T11:36:25.071Z,64.04
2018-08-13T11:38:53.337Z,65.11
2018-08-13T11:41:21.571Z,63.62
2018-08-13T11:43:49.797Z,64.28
2018-08-13T11:46:18.336Z,64.00
2018-08-13T11:48:46.570Z,64.74
2018-08-13T11:51:14.793Z,63.10
2018-08-13T11:53:43.074Z,61.62
2018-08-13T11:56:11.352Z,61.67
2018-08-13T11:58:39.597Z,60.95
2018-08-13T12:01:07.920Z,60.57
2018-08-13T12:03:36.148Z,60.58
2018-08-13T12:06:04.408Z,59.92
2018-08-13T12:08:32.818Z,58.26
2018-08-13T12:11:00.968Z,55.44
2018-08-13T12:13:29.228Z,55.69
2018-08-13T12:15:57.453Z,56.74
2018-08-13T12:18:25.734Z,56.32
2018-08-13T12:20:53.926Z,57.01
2018-08-13T12:23:22.169Z,57.68
2018-08-13T12:25:50.449Z,57.88
2018-08-13T12:28:18.700Z,58.98
2018-08-13T12:30:46.919Z,62.15
2018-08-13T12:33:15.306Z,71.50
2018-08-13T12:35:43.572Z,82.19
2018-08-13T12:38:11.784Z,85.15
2018-08-13T12:40:40.065Z,86.76
2018-08-13T12:43:08.382Z,88.04
2018-08-13T12:45:36.605Z,89.18
2018-08-13T12:48:04.860Z,89.60
2018-08-13T12:50:33.150Z,89.10
2018-08-13T12:53:01.366Z,90.05
2018-08-13T12:55:29.620Z,89.29
2018-08-13T12:57:57.869Z,88.80
2018-08-13T13:00:26.216Z,89.47
2018-08-13T13:02:54.440Z,88.63
2018-08-13T13:05:22.652Z,88.94
2018-08-13T13:07:50.882Z,89.52
2018-08-13T13:10:19.184Z,88.80
2018-08-13T13:12:47.460Z,86.98
2018-08-13T13:15:17.748Z,85.21
2018-08-13T13:17:45.995Z,84.18
2018-08-13T13:20:21.011Z,83.84
2018-08-13T13:22:49.890Z,84.09
2018-08-13T13:25:18.488Z,82.09
2018-08-13T13:27:46.794Z,78.93
2018-08-13T13:30:15.940Z,80.80
2018-08-13T13:32:44.577Z,81.14
2018-08-13T13:35:14.641Z,82.23
2018-08-13T13:37:43.014Z,80.58
2018-08-13T13:40:15.521Z,80.62
2018-08-13T13:42:43.758Z,80.62
2018-08-13T13:45:12.456Z,79.16
2018-08-13T13:47:40.715Z,79.00
2018-08-13T13:50:13.736Z,80.76
2018-08-13T13:52:42.006Z,79.75
2018-08-13T13:55:10.339Z,78.92
2018-08-13T13:57:38.568Z,78.90
2018-08-13T14:00:11.392Z,80.47
2018-08-13T14:02:39.636Z,77.93
2018-08-13T14:05:07.977Z,74.76
2018-08-13T14:07:36.220Z,75.12
2018-08-13T14:10:05.693Z,74.70
2018-08-13T14:12:33.936Z,72.53
2018-08-13T14:15:02.201Z,71.50
2018-08-13T14:17:30.515Z,71.42
2018-08-13T14:19:58.680Z,70.67
2018-08-13T14:22:27.000Z,70.20
2018-08-13T14:24:55.247Z,68.40
2018-08-13T14:27:23.581Z,69.44
2018-08-13T14:29:51.812Z,65.78
2018-08-13T14:32:20.009Z,67.71
2018-08-13T14:34:48.267Z,66.04
2018-08-13T14:37:16.444Z,68.17
2018-08-13T14:39:44.699Z,68.14
2018-08-13T14:42:12.969Z,67.57
2018-08-13T14:44:41.221Z,66.63
2018-08-13T14:47:09.432Z,65.94
2018-08-13T14:49:40.610Z,66.35
2018-08-13T14:52:08.833Z,65.96
2018-08-13T14:54:37.084Z,67.83
2018-08-13T14:57:05.336Z,66.83
2018-08-13T14:59:33.567Z,68.13
2018-08-13T15:02:01.813Z,68.97
2018-08-13T15:04:30.076Z,67.55
2018-08-13T15:06:58.410Z,67.25
2018-08-13T15:09:26.655Z,67.34
2018-08-13T15:11:54.953Z,67.62
2018-08-13T15:14:23.184Z,66.58
2018-08-13T15:16:51.434Z,67.55
2018-08-13T15:19:19.769Z,66.42
2018-08-13T15:21:48.033Z,65.72
2018-08-13T15:24:16.264Z,65.88
2018-08-13T15:26:44.472Z,65.77
2018-08-13T15:29:12.845Z,66.15
2018-08-13T15:31:41.072Z,66.09
2018-08-13T15:34:09.307Z,66.35
2018-08-13T15:36:37.548Z,65.12
2018-08-13T15:39:08.993Z,65.65
2018-08-13T15:41:37.213Z,65.37
2018-08-13T15:44:05.466Z,65.80
2018-08-13T15:46:33.716Z,66.29
2018-08-13T15:49:02.191Z,65.49
2018-08-13T15:51:30.405Z,66.38
2018-08-13T15:53:58.625Z,65.23
2018-08-13T15:56:26.897Z,63.62
2018-08-13T15:58:55.149Z,64.11
2018-08-13T16:01:23.471Z,64.69
2018-08-13T16:03:51.696Z,62.57
2018-08-13T16:06:20.213Z,61.96
2018-08-13T16:08:48.445Z,61.16
2018-08-13T16:11:16.744Z,58.47
2018-08-13T16:13:44.973Z,57.87
2018-08-13T16:16:13.200Z,55.87
2018-08-13T16:18:41.405Z,52.52
2018-08-13T16:21:09.653Z,53.31
2018-08-13T16:23:37.864Z,52.01
2018-08-13T16:26:06.197Z,54.08
2018-08-13T16:28:34.444Z,54.34
2018-08-13T16:31:02.714Z,55.19
2018-08-13T16:33:31.576Z,56.50
2018-08-13T16:35:59.844Z,53.85
2018-08-13T16:38:28.081Z,54.34
2018-08-13T16:40:56.361Z,54.07
2018-08-13T16:43:24.588Z,53.84
2018-08-13T16:45:53.820Z,53.78
2018-08-13T16:48:22.034Z,54.38
2018-08-13T16:50:50.294Z,55.84
2018-08-13T16:53:25.168Z,56.60
2018-08-13T16:55:53.428Z,55.63
2018-08-13T16:58:21.705Z,54.94
2018-08-13T17:00:49.996Z,54.96
2018-08-13T17:03:18.276Z,52.02
2018-08-13T17:05:46.584Z,52.96
2018-08-13T17:10:42.089Z,53.11
2018-08-13T17:13:10.329Z,53.69
2018-08-13T17:15:38.561Z,54.74
2018-08-13T17:18:06.817Z,54.14
2018-08-13T17:20:38.069Z,53.52
2018-08-13T17:23:06.325Z,53.42
2018-08-13T17:25:34.577Z,53.33
2018-08-13T17:28:02.852Z,54.26
2018-08-13T17:30:31.092Z,54.71
2018-08-13T17:33:00.496Z,54.20
2018-08-13T17:35:31.570Z,54.44
2018-08-13T17:38:00.701Z,55.01
2018-08-13T17:40:29.374Z,55.11
2018-08-13T17:42:57.879Z,55.79
2018-08-13T17:45:26.263Z,55.74
2018-08-13T17:47:54.520Z,57.51
2018-08-13T17:50:23.252Z,56.12
2018-08-13T17:52:51.524Z,56.95
2018-08-13T17:55:19.873Z,58.15
2018-08-13T17:57:48.189Z,58.12
2018-08-13T18:00:18.597Z,59.12
2018-08-13T18:02:46.840Z,59.05
2018-08-13T18:05:17.300Z,58.08
2018-08-13T18:07:45.697Z,57.80
2018-08-13T18:10:31.177Z,58.26
2018-08-13T18:13:02.536Z,58.04
2018-08-13T18:15:31.020Z,58.61
2018-08-13T18:17:59.285Z,59.61
2018-08-13T18:20:27.556Z,59.23
2018-08-13T18:22:55.828Z,59.26
2018-08-13T18:25:24.065Z,60.00
2018-08-13T18:27:52.882Z,60.64
2018-08-13T18:30:23.424Z,60.19
2018-08-13T18:32:52.104Z,61.54
2018-08-13T18:35:20.416Z,61.18
2018-08-13T18:37:48.652Z,61.32
2018-08-13T18:40:25.788Z,60.73
2018-08-13T18:42:54.017Z,60.10
2018-08-13T18:45:22.272Z,60.18
2018-08-13T18:47:51.160Z,60.22
2018-08-13T18:50:20.577Z,61.05
2018-08-13T18:52:48.849Z,60.74
2018-08-13T18:55:18.768Z,61.58
2018-08-13T18:57:47.560Z,61.79
2018-08-13T19:00:19.312Z,61.96
2018-08-13T19:02:47.676Z,61.42
2018-08-13T19:05:17.360Z,62.39
2018-08-13T19:07:46.488Z,62.56
2018-08-13T19:10:15.622Z,61.80
2018-08-13T19:12:43.845Z,61.54
2018-08-13T19:15:16.890Z,61.33
2018-08-13T19:17:45.208Z,62.78
2018-08-13T19:20:14.330Z,62.98
2018-08-13T19:22:43.352Z,62.96
2018-08-13T19:25:18.008Z,61.90
2018-08-13T19:27:46.464Z,63.07
2018-08-13T19:30:16.185Z,62.57
2018-08-13T19:32:45.402Z,62.71
2018-08-13T19:35:13.673Z,63.38
2018-08-13T19:37:42.092Z,63.01
2018-08-13T19:40:14.647Z,63.70
2018-08-13T19:42:43.384Z,63.29
2018-08-13T19:45:12.934Z,62.32
2018-08-13T19:47:41.296Z,63.30
2018-08-13T19:50:10.932Z,62.61
2018-08-13T19:52:39.969Z,63.04
2018-08-13T19:55:08.651Z,62.57
2018-08-13T19:57:36.884Z,62.60
2018-08-13T20:00:08.472Z,63.95
2018-08-13T20:02:36.700Z,62.92
2018-08-13T20:05:04.977Z,63.27
2018-08-13T20:07:33.189Z,64.56
2018-08-13T20:10:01.417Z,64.09
2018-08-13T20:12:29.644Z,64.21
2018-08-13T20:14:57.861Z,64.97
2018-08-13T20:17:26.080Z,64.11
2018-08-13T20:19:54.402Z,64.40
2018-08-13T20:22:22.620Z,65.21
2018-08-13T20:24:50.840Z,65.20
2018-08-13T20:27:19.106Z,64.87
2018-08-13T20:29:47.361Z,65.44
2018-08-13T20:32:15.571Z,65.09
2018-08-13T20:34:43.773Z,65.13
2018-08-13T20:37:12.021Z,66.14
2018-08-13T20:39:40.240Z,65.38
2018-08-13T20:42:08.505Z,65.84
2018-08-13T20:44:36.740Z,65.02
2018-08-13T20:47:05.059Z,65.75
2018-08-13T20:49:33.281Z,64.85
2018-08-13T20:52:01.550Z,65.28
2018-08-13T20:54:29.841Z,65.88
2018-08-13T20:56:58.089Z,64.99
2018-08-13T20:59:26.318Z,65.37
2018-08-13T21:01:54.551Z,65.60
2018-08-13T21:04:22.780Z,65.81
2018-08-13T21:06:50.996Z,66.03
2018-08-13T21:09:19.234Z,66.43
2018-08-13T21:11:47.468Z,66.40
2018-08-13T21:14:15.684Z,66.99
2018-08-13T21:16:43.974Z,66.27
2018-08-13T21:19:12.209Z,66.17
2018-08-13T21:21:40.429Z,67.01
2018-08-13T21:24:08.648Z,66.67
2018-08-13T21:26:36.911Z,67.77
2018-08-13T21:29:05.168Z,67.83
2018-08-13T21:31:33.460Z,66.70
2018-08-13T21:34:01.692Z,68.08
2018-08-13T21:36:29.972Z,67.65
2018-08-13T21:38:58.226Z,68.61
2018-08-13T21:41:26.468Z,67.73
2018-08-13T21:43:54.704Z,69.06
2018-08-13T21:46:22.958Z,67.98
2018-08-13T21:48:51.178Z,68.42
2018-08-13T21:51:19.513Z,68.17
2018-08-13T21:53:47.724Z,69.74
2018-08-13T21:56:15.916Z,70.52
2018-08-13T21:58:44.169Z,69.43
2018-08-13T22:01:17.801Z,70.40
2018-08-13T22:03:46.054Z,70.22
2018-08-13T22:06:14.344Z,70.75
2018-08-13T22:08:42.601Z,71.58
2018-08-13T22:11:11.388Z,71.00
2018-08-13T22:13:39.623Z,71.19
2018-08-13T22:16:07.906Z,71.46
2018-08-13T22:18:36.193Z,70.72
2018-08-13T22:21:04.449Z,71.68
2018-08-13T22:23:32.727Z,71.20
2018-08-13T22:26:00.952Z,71.05
2018-08-13T22:28:29.182Z,72.12
2018-08-13T22:30:57.453Z,71.17
2018-08-13T22:33:25.717Z,71.85
2018-08-13T22:35:53.932Z,71.46
2018-08-13T22:38:22.198Z,71.85
2018-08-13T22:40:50.452Z,71.62
2018-08-13T22:43:18.657Z,70.95
2018-08-13T22:45:46.898Z,70.38
2018-08-13T22:48:15.133Z,70.40
2018-08-13T22:50:43.428Z,70.33
2018-08-13T22:53:11.667Z,70.80
2018-08-13T22:55:39.925Z,71.04
2018-08-13T22:58:08.168Z,71.72
2018-08-13T23:00:36.394Z,71.67
2018-08-13T23:03:04.649Z,70.41
2018-08-13T23:05:32.900Z,70.46
2018-08-13T23:08:01.174Z,70.99
2018-08-13T23:10:29.497Z,70.59
2018-08-13T23:12:57.724Z,70.73
2018-08-13T23:15:26.038Z,71.84
2018-08-13T23:17:54.520Z,71.63
2018-08-13T23:20:25.865Z,71.49
2018-08-13T23:23:03.956Z,71.61
2018-08-13T23:25:33.796Z,70.59
2018-08-13T23:28:03.296Z,70.56
2018-08-13T23:30:31.629Z,70.50
2018-08-13T23:33:00.693Z,71.39
2018-08-13T23:35:29.629Z,71.33
2018-08-13T23:37:57.945Z,71.66
2018-08-13T23:40:26.400Z,70.66
2018-08-13T23:42:54.641Z,71.46
2018-08-13T23:45:26.125Z,71.33
2018-08-13T23:47:54.370Z,70.90
2018-08-13T23:50:23.937Z,71.67
2018-08-13T23:52:53.341Z,71.68
2018-08-13T23:55:26.248Z,72.10
2018-08-13T23:57:54.715Z,71.38
